createdAt,value
2019-05-14T00:02:12.257Z,23.08
2019-05-14T00:04:42.417Z,23.07
2019-05-14T00:07:11.573Z,23.01
2019-05-14T00:09:41.551Z,23.04
2019-05-14T00:12:11.353Z,23.01
2019-05-14T00:14:43.174Z,23.00
2019-05-14T00:17:11.338Z,23.07
2019-05-14T00:22:11.843Z,22.98
2019-05-14T00:24:41.962Z,22.91
2019-05-14T00:27:11.657Z,22.91
2019-05-14T00:29:41.902Z,22.94
2019-05-14T00:32:11.244Z,22.91
2019-05-14T00:34:42.137Z,22.90
2019-05-14T00:37:11.826Z,22.87
2019-05-14T00:39:41.632Z,22.89
2019-05-14T00:42:12.436Z,22.86
2019-05-14T00:44:53.766Z,22.83
2019-05-14T00:47:11.423Z,22.82
2019-05-14T00:49:42.612Z,22.81
2019-05-14T00:52:12.019Z,22.82
2019-05-14T00:54:41.659Z,22.78
2019-05-14T00:57:11.881Z,22.82
2019-05-14T01:00:52.235Z,22.86
2019-05-14T01:03:18.797Z,22.74
2019-05-14T01:05:47.606Z,22.73
2019-05-14T01:08:16.953Z,22.72
2019-05-14T01:10:45.408Z,22.63
2019-05-14T01:13:13.649Z,22.68
2019-05-14T01:15:41.746Z,22.65
2019-05-14T01:18:11.371Z,22.65
2019-05-14T01:20:41.193Z,22.68
2019-05-14T01:23:08.944Z,22.68
2019-05-14T01:25:37.520Z,22.62
2019-05-14T01:28:05.605Z,22.64
2019-05-14T01:30:32.742Z,22.53
2019-05-14T01:33:01.743Z,22.56
2019-05-14T01:35:31.589Z,22.48
2019-05-14T01:37:59.408Z,22.50
2019-05-14T01:40:26.831Z,22.56
2019-05-14T01:42:54.255Z,22.49
2019-05-14T01:45:27.781Z,22.49
2019-05-14T01:47:52.144Z,22.50
2019-05-14T01:50:21.512Z,22.50
2019-05-14T01:52:51.861Z,22.52
2019-05-14T01:55:18.596Z,22.45
2019-05-14T01:57:45.855Z,22.48
2019-05-14T02:00:14.989Z,22.46
2019-05-14T02:02:42.694Z,22.46
2019-05-14T02:05:12.447Z,22.47
2019-05-14T02:07:42.083Z,22.41
2019-05-14T02:10:11.757Z,22.42
2019-05-14T02:14:31.495Z,22.42
2019-05-14T02:16:58.938Z,22.37
2019-05-14T02:19:26.411Z,22.35
2019-05-14T02:21:53.707Z,22.34
2019-05-14T02:24:21.891Z,22.30
2019-05-14T02:26:51.449Z,22.28
2019-05-14T02:29:21.306Z,22.27
2019-05-14T02:31:50.379Z,22.25
2019-05-14T02:34:19.953Z,22.27
2019-05-14T02:36:49.672Z,22.27
2019-05-14T02:39:19.629Z,22.24
2019-05-14T02:41:49.956Z,22.24
2019-05-14T02:44:18.850Z,22.21
2019-05-14T02:46:46.399Z,22.22
2019-05-14T02:49:13.897Z,22.21
2019-05-14T02:51:41.609Z,22.23
2019-05-14T02:54:10.179Z,22.21
2019-05-14T02:56:40.294Z,22.19
2019-05-14T02:59:09.782Z,22.15
2019-05-14T03:01:40.486Z,22.17
2019-05-14T03:04:09.124Z,22.16
2019-05-14T03:06:35.973Z,22.14
2019-05-14T03:09:05.024Z,22.11
2019-05-14T03:11:32.509Z,22.10
2019-05-14T03:14:02.354Z,22.06
2019-05-14T03:16:35.623Z,22.09
2019-05-14T03:19:01.358Z,22.12
2019-05-14T03:21:30.580Z,22.11
2019-05-14T03:24:00.842Z,22.06
2019-05-14T03:26:29.317Z,22.06
2019-05-14T03:28:59.795Z,22.10
2019-05-14T03:31:32.224Z,21.94
2019-05-14T03:34:02.069Z,21.94
2019-05-14T03:36:34.110Z,22.03
2019-05-14T03:38:59.380Z,21.97
2019-05-14T03:41:30.362Z,22.03
2019-05-14T03:43:56.352Z,21.97
2019-05-14T03:46:41.221Z,21.99
2019-05-14T03:48:53.617Z,22.03
2019-05-14T03:51:20.847Z,22.00
2019-05-14T03:53:56.886Z,21.82
2019-05-14T03:56:19.272Z,21.82
2019-05-14T03:58:49.424Z,22.01
2019-05-14T04:01:20.134Z,22.00
2019-05-14T04:03:50.407Z,22.00
2019-05-14T04:06:19.126Z,22.05
2019-05-14T04:08:49.533Z,22.06
2019-05-14T04:11:16.048Z,22.02
2019-05-14T04:13:43.528Z,22.01
2019-05-14T04:16:13.249Z,22.00
2019-05-14T04:18:40.926Z,21.97
2019-05-14T04:21:09.850Z,21.97
2019-05-14T04:23:39.623Z,21.95
2019-05-14T04:26:09.344Z,21.95
2019-05-14T04:28:39.037Z,21.95
2019-05-14T04:31:05.614Z,22.02
2019-05-14T04:33:34.543Z,21.97
2019-05-14T04:36:01.999Z,21.97
2019-05-14T04:38:30.123Z,22.01
2019-05-14T04:42:00.062Z,22.06
2019-05-14T04:44:29.908Z,21.99
2019-05-14T04:47:00.101Z,22.06
2019-05-14T04:49:29.626Z,22.06
2019-05-14T04:51:59.516Z,22.08
2019-05-14T04:54:29.859Z,22.11
2019-05-14T04:57:00.006Z,22.22
2019-05-14T04:59:29.936Z,22.26
2019-05-14T05:01:59.872Z,22.31
2019-05-14T05:04:29.924Z,22.41
2019-05-14T05:06:59.243Z,22.41
2019-05-14T05:09:29.376Z,22.40
2019-05-14T05:11:59.515Z,22.47
2019-05-14T05:14:25.749Z,22.49
2019-05-14T05:16:53.725Z,22.52
2019-05-14T05:19:21.986Z,22.59
2019-05-14T05:21:51.491Z,22.61
2019-05-14T05:24:20.423Z,22.62
2019-05-14T05:26:49.428Z,22.63
2019-05-14T05:29:19.235Z,22.68
2019-05-14T05:31:48.748Z,22.73
2019-05-14T05:34:19.194Z,22.79
2019-05-14T05:36:48.507Z,22.82
2019-05-14T05:39:18.984Z,22.75
2019-05-14T05:41:49.160Z,22.80
2019-05-14T05:44:18.827Z,22.83
2019-05-14T05:46:49.179Z,22.88
2019-05-14T05:49:18.657Z,22.92
2019-05-14T05:51:48.338Z,22.99
2019-05-14T05:56:48.430Z,23.05
2019-05-14T05:59:18.912Z,23.08
2019-05-14T06:01:50.269Z,23.14
2019-05-14T06:04:18.345Z,23.20
2019-05-14T06:06:48.240Z,23.20
2019-05-14T06:09:15.486Z,23.24
2019-05-14T06:11:44.492Z,23.29
2019-05-14T06:14:12.427Z,23.32
2019-05-14T06:16:40.404Z,23.42
2019-05-14T06:19:08.445Z,23.48
2019-05-14T06:21:36.751Z,23.41
2019-05-14T06:24:04.340Z,23.50
2019-05-14T06:27:20.616Z,23.51
2019-05-14T06:29:50.173Z,23.61
2019-05-14T06:32:18.947Z,23.57
2019-05-14T06:34:48.967Z,23.61
2019-05-14T06:37:19.089Z,23.66
2019-05-14T06:39:48.985Z,23.69
2019-05-14T06:42:19.350Z,23.76
2019-05-14T06:44:49.307Z,23.80
2019-05-14T06:47:18.454Z,23.85
2019-05-14T06:49:48.836Z,23.84
2019-05-14T06:52:18.801Z,23.91
2019-05-14T06:54:49.585Z,23.91
2019-05-14T06:57:18.042Z,23.96
2019-05-14T06:59:45.487Z,24.04
2019-05-14T07:02:12.863Z,24.03
2019-05-14T07:04:40.929Z,24.08
2019-05-14T07:07:08.697Z,24.15
2019-05-14T07:09:38.420Z,24.19
2019-05-14T07:12:08.890Z,24.28
2019-05-14T07:14:38.842Z,24.32
2019-05-14T07:17:08.860Z,24.23
2019-05-14T07:19:38.308Z,24.33
2019-05-14T07:22:05.908Z,24.33
2019-05-14T07:24:38.071Z,24.36
2019-05-14T07:27:04.807Z,24.46
2019-05-14T07:29:33.247Z,24.43
2019-05-14T07:32:01.996Z,24.45
2019-05-14T07:34:30.922Z,24.53
2019-05-14T07:37:00.370Z,24.54
2019-05-14T07:39:29.053Z,24.63
2019-05-14T07:41:58.996Z,24.70
2019-05-14T07:44:29.439Z,24.71
2019-05-14T07:46:58.838Z,24.77
2019-05-14T07:49:29.021Z,24.79
2019-05-14T07:51:58.766Z,24.79
2019-05-14T07:54:28.325Z,24.83
2019-05-14T07:56:55.766Z,24.90
2019-05-14T07:59:23.897Z,24.91
2019-05-14T08:01:52.596Z,24.94
2019-05-14T08:04:20.494Z,24.97
2019-05-14T08:06:48.899Z,24.97
2019-05-14T08:09:18.818Z,25.06
2019-05-14T08:11:47.895Z,25.06
2019-05-14T08:14:15.487Z,25.10
2019-05-14T08:16:42.985Z,25.14
2019-05-14T08:19:26.091Z,25.11
2019-05-14T08:21:39.602Z,25.14
2019-05-14T08:24:08.877Z,25.18
2019-05-14T08:26:38.274Z,25.19
2019-05-14T08:29:05.743Z,25.22
2019-05-14T08:31:35.246Z,25.23
2019-05-14T08:34:06.038Z,25.27
2019-05-14T08:36:34.250Z,25.33
2019-05-14T08:39:05.247Z,25.35
2019-05-14T08:41:33.252Z,25.26
2019-05-14T08:44:00.607Z,25.26
2019-05-14T08:46:28.390Z,25.40
2019-05-14T08:48:58.625Z,25.44
2019-05-14T08:51:29.363Z,25.48
2019-05-14T08:53:59.250Z,25.50
2019-05-14T08:56:28.497Z,25.59
2019-05-14T08:58:58.913Z,25.65
2019-05-14T09:01:29.322Z,25.71
2019-05-14T09:03:59.571Z,25.77
2019-05-14T09:06:28.975Z,25.75
2019-05-14T09:08:59.279Z,25.73
2019-05-14T09:11:26.307Z,25.77
2019-05-14T09:13:55.087Z,25.86
2019-05-14T09:16:38.377Z,25.83
2019-05-14T09:18:53.499Z,25.85
2019-05-14T09:21:20.901Z,25.91
2019-05-14T09:23:48.436Z,25.98
2019-05-14T09:26:17.927Z,25.99
2019-05-14T09:28:45.270Z,26.02
2019-05-14T09:31:13.494Z,26.07
2019-05-14T09:33:42.428Z,26.05
2019-05-14T09:36:18.932Z,26.05
2019-05-14T09:38:42.120Z,26.08
2019-05-14T09:41:15.307Z,26.13
2019-05-14T09:43:42.274Z,26.14
2019-05-14T09:46:11.787Z,26.22
2019-05-14T09:48:41.248Z,26.27
2019-05-14T09:51:10.859Z,26.30
2019-05-14T09:53:39.606Z,26.32
2019-05-14T09:56:09.238Z,26.36
2019-05-14T09:58:38.945Z,26.33
2019-05-14T10:01:08.742Z,26.36
2019-05-14T10:03:39.083Z,26.32
2019-05-14T10:06:09.781Z,26.25
2019-05-14T10:08:39.317Z,26.24
2019-05-14T10:11:08.497Z,26.26
2019-05-14T10:15:48.602Z,26.32
2019-05-14T10:18:19.073Z,26.31
2019-05-14T10:20:49.506Z,26.31
2019-05-14T10:23:19.144Z,26.40
2019-05-14T10:25:47.258Z,26.41
2019-05-14T10:28:15.822Z,26.38
2019-05-14T10:30:43.866Z,26.35
2019-05-14T10:33:15.073Z,26.39
2019-05-14T10:35:41.614Z,26.36
2019-05-14T10:38:10.809Z,26.26
2019-05-14T10:40:39.620Z,26.20
2019-05-14T10:43:09.494Z,26.24
2019-05-14T10:45:38.633Z,26.31
2019-05-14T10:48:09.675Z,26.42
2019-05-14T10:50:55.650Z,26.46
2019-05-14T10:53:09.302Z,26.52
2019-05-14T10:55:38.614Z,26.49
2019-05-14T10:58:08.880Z,26.52
2019-05-14T11:00:41.925Z,26.52
2019-05-14T11:03:10.749Z,26.51
2019-05-14T11:05:41.480Z,26.55
2019-05-14T11:08:12.013Z,26.53
2019-05-14T11:10:42.227Z,26.39
2019-05-14T11:13:09.740Z,26.35
2019-05-14T11:15:39.694Z,26.37
2019-05-14T11:18:08.894Z,26.29
2019-05-14T11:20:41.704Z,26.19
2019-05-14T11:23:08.915Z,26.15
2019-05-14T11:25:38.307Z,26.13
2019-05-14T11:28:06.594Z,26.19
2019-05-14T11:30:34.980Z,26.26
2019-05-14T11:33:49.740Z,26.40
2019-05-14T11:36:18.816Z,26.41
2019-05-14T11:38:50.239Z,26.37
2019-05-14T11:41:18.453Z,26.41
2019-05-14T11:43:49.197Z,26.36
2019-05-14T11:46:24.945Z,26.29
2019-05-14T11:48:49.104Z,26.23
2019-05-14T11:51:20.646Z,26.17
2019-05-14T11:53:49.443Z,26.11
2019-05-14T11:56:19.486Z,26.10
2019-05-14T11:58:46.873Z,26.15
2019-05-14T12:01:14.828Z,26.33
2019-05-14T12:03:42.242Z,26.48
2019-05-14T12:06:10.109Z,26.54
2019-05-14T12:08:41.791Z,26.55
2019-05-14T12:11:08.798Z,26.43
2019-05-14T12:13:39.188Z,26.41
2019-05-14T12:16:08.608Z,26.40
2019-05-14T12:18:41.372Z,26.47
2019-05-14T12:21:08.917Z,26.55
2019-05-14T12:23:39.308Z,26.49
2019-05-14T12:26:09.619Z,26.39
2019-05-14T12:28:38.686Z,26.35
2019-05-14T12:31:09.272Z,26.43
2019-05-14T12:33:39.532Z,26.34
2019-05-14T12:36:10.358Z,26.24
2019-05-14T12:38:40.238Z,26.03
2019-05-14T12:41:09.385Z,25.94
2019-05-14T12:43:40.171Z,26.03
2019-05-14T12:46:10.762Z,26.07
2019-05-14T12:48:39.624Z,26.07
2019-05-14T12:51:09.201Z,26.14
2019-05-14T12:53:39.586Z,26.29
2019-05-14T12:56:09.538Z,26.29
2019-05-14T12:58:44.887Z,26.22
2019-05-14T13:01:10.503Z,26.24
2019-05-14T13:03:39.887Z,26.25
2019-05-14T13:06:10.216Z,26.17
2019-05-14T13:08:39.924Z,26.07
2019-05-14T13:11:09.941Z,25.98
2019-05-14T13:13:42.869Z,25.98
2019-05-14T13:16:11.006Z,25.96
2019-05-14T13:18:40.346Z,25.98
2019-05-14T13:21:09.797Z,25.96
2019-05-14T13:23:38.629Z,26.02
2019-05-14T13:26:10.477Z,26.07
2019-05-14T13:28:39.938Z,26.08
2019-05-14T13:31:09.615Z,26.18
2019-05-14T13:33:39.520Z,26.27
2019-05-14T13:36:09.420Z,26.27
2019-05-14T13:38:39.723Z,26.32
2019-05-14T13:41:09.592Z,26.26
2019-05-14T13:43:40.283Z,26.19
2019-05-14T13:46:12.633Z,26.15
2019-05-14T13:48:43.386Z,26.08
2019-05-14T13:51:12.039Z,26.00
2019-05-14T13:54:32.247Z,26.10
2019-05-14T13:57:01.402Z,26.01
2019-05-14T13:59:31.440Z,25.61
2019-05-14T14:02:00.791Z,25.87
2019-05-14T14:04:29.599Z,25.84
2019-05-14T14:06:59.330Z,25.75
2019-05-14T14:09:31.445Z,25.71
2019-05-14T14:12:00.800Z,25.66
2019-05-14T14:14:29.600Z,25.65
2019-05-14T14:16:59.372Z,25.68
2019-05-14T14:19:28.422Z,25.66
2019-05-14T14:21:59.087Z,25.68
2019-05-14T14:24:29.250Z,25.67
2019-05-14T14:26:58.856Z,25.63
2019-05-14T14:29:27.787Z,25.66
2019-05-14T14:31:58.823Z,25.66
2019-05-14T14:34:29.121Z,25.63
2019-05-14T14:37:00.266Z,25.56
2019-05-14T14:39:29.425Z,25.57
2019-05-14T14:41:59.059Z,25.54
2019-05-14T14:44:29.214Z,25.49
2019-05-14T14:46:58.423Z,25.52
2019-05-14T14:49:28.172Z,25.57
2019-05-14T14:51:58.976Z,25.65
2019-05-14T14:54:28.916Z,25.72
2019-05-14T14:56:59.232Z,25.80
2019-05-14T14:59:30.601Z,25.81
2019-05-14T15:02:01.058Z,25.12
2019-05-14T15:04:30.353Z,25.64
2019-05-14T15:07:00.483Z,25.53
2019-05-14T15:09:30.643Z,25.49
2019-05-14T15:12:00.583Z,25.50
2019-05-14T15:14:30.050Z,25.35
2019-05-14T15:17:00.454Z,25.23
2019-05-14T15:19:30.032Z,25.16
2019-05-14T15:21:59.355Z,25.09
2019-05-14T15:24:29.024Z,24.97
2019-05-14T15:27:07.746Z,24.95
2019-05-14T15:29:29.986Z,24.97
2019-05-14T15:31:59.520Z,24.90
2019-05-14T15:34:29.862Z,24.76
2019-05-14T15:37:00.105Z,24.75
2019-05-14T15:39:30.198Z,24.75
2019-05-14T15:42:05.073Z,24.79
2019-05-14T15:44:47.442Z,24.68
2019-05-14T15:47:01.992Z,24.60
2019-05-14T15:49:32.048Z,24.63
2019-05-14T15:52:01.350Z,24.60
2019-05-14T15:54:42.899Z,24.56
2019-05-14T15:57:01.897Z,24.57
2019-05-14T15:59:31.250Z,24.57
2019-05-14T16:02:00.732Z,24.58
2019-05-14T16:04:30.692Z,24.51
2019-05-14T16:07:00.247Z,24.55
2019-05-14T16:09:29.832Z,24.52
2019-05-14T16:11:58.996Z,24.50
2019-05-14T16:14:30.067Z,24.51
2019-05-14T16:16:59.696Z,24.48
2019-05-14T16:19:29.340Z,24.45
2019-05-14T16:21:58.982Z,24.44
2019-05-14T16:24:28.768Z,24.44
2019-05-14T16:26:59.882Z,24.44
2019-05-14T16:29:44.194Z,24.44
2019-05-14T16:32:01.498Z,24.54
2019-05-14T16:34:30.796Z,24.54
2019-05-14T16:36:59.832Z,24.47
2019-05-14T16:39:29.829Z,24.48
2019-05-14T16:41:58.744Z,24.42
2019-05-14T16:44:28.507Z,24.43
2019-05-14T16:46:58.884Z,24.36
2019-05-14T16:49:29.965Z,24.37
2019-05-14T16:51:59.877Z,24.31
2019-05-14T16:54:29.862Z,24.28
2019-05-14T16:56:59.438Z,24.27
2019-05-14T16:59:29.521Z,24.27
2019-05-14T17:01:58.987Z,24.40
2019-05-14T17:04:29.358Z,24.42
2019-05-14T17:06:59.072Z,24.55
2019-05-14T17:09:29.025Z,24.67
2019-05-14T17:11:59.124Z,24.72
2019-05-14T17:14:29.410Z,24.25
2019-05-14T17:16:59.694Z,24.91
2019-05-14T17:19:29.918Z,24.86
2019-05-14T17:21:59.588Z,24.93
2019-05-14T17:24:29.492Z,25.03
2019-05-14T17:26:58.781Z,25.03
2019-05-14T17:29:28.625Z,24.94
2019-05-14T17:31:57.685Z,25.05
2019-05-14T17:34:29.364Z,25.13
2019-05-14T17:37:43.105Z,25.23
2019-05-14T17:40:12.360Z,25.26
2019-05-14T17:42:42.602Z,25.28
2019-05-14T17:45:12.022Z,25.35
2019-05-14T17:47:42.033Z,25.35
2019-05-14T17:50:11.452Z,25.23
2019-05-14T17:52:44.002Z,25.16
2019-05-14T17:55:12.514Z,25.27
2019-05-14T17:57:47.637Z,25.28
2019-05-14T18:00:14.943Z,25.24
2019-05-14T18:02:44.246Z,25.05
2019-05-14T18:05:13.842Z,25.05
2019-05-14T18:07:43.602Z,25.11
2019-05-14T18:10:12.768Z,25.05
2019-05-14T18:12:41.595Z,25.00
2019-05-14T18:15:10.758Z,24.93
2019-05-14T18:17:40.427Z,24.91
2019-05-14T18:20:09.752Z,24.80
2019-05-14T18:22:41.993Z,24.83
2019-05-14T18:25:09.764Z,24.76
2019-05-14T18:27:39.463Z,24.67
2019-05-14T18:30:09.570Z,24.57
2019-05-14T18:32:39.334Z,24.52
2019-05-14T18:35:08.597Z,24.45
2019-05-14T18:37:38.947Z,24.43
2019-05-14T18:40:09.222Z,24.41
2019-05-14T18:42:39.404Z,24.47
2019-05-14T18:45:09.599Z,24.43
2019-05-14T18:47:40.053Z,24.43
2019-05-14T18:50:09.407Z,24.44
2019-05-14T18:52:40.091Z,24.41
2019-05-14T18:57:02.891Z,24.44
2019-05-14T18:59:32.653Z,24.35
2019-05-14T19:02:01.884Z,24.25
2019-05-14T19:04:30.911Z,24.20
2019-05-14T19:07:00.116Z,24.15
2019-05-14T19:09:29.982Z,24.11
2019-05-14T19:11:59.329Z,24.00
2019-05-14T19:14:29.383Z,24.00
2019-05-14T19:16:59.734Z,23.96
2019-05-14T19:19:29.521Z,23.94
2019-05-14T19:21:59.122Z,23.87
2019-05-14T19:24:28.754Z,23.85
2019-05-14T19:26:59.610Z,23.79
2019-05-14T19:29:28.920Z,23.79
2019-05-14T19:31:58.109Z,23.79
2019-05-14T19:34:28.704Z,23.75
2019-05-14T19:36:58.005Z,23.78
2019-05-14T19:39:28.188Z,23.70
2019-05-14T19:41:57.523Z,23.66
2019-05-14T19:44:26.802Z,23.64
2019-05-14T19:46:55.969Z,23.60
2019-05-14T19:49:26.121Z,23.59
2019-05-14T19:51:55.753Z,23.57
2019-05-14T19:54:25.698Z,23.55
2019-05-14T19:56:57.593Z,23.55
2019-05-14T19:59:28.760Z,23.55
2019-05-14T20:01:58.912Z,23.51
2019-05-14T20:04:29.234Z,23.49
2019-05-14T20:06:58.902Z,23.45
2019-05-14T20:09:29.418Z,23.46
2019-05-14T20:11:58.732Z,23.48
2019-05-14T20:14:28.814Z,23.47
2019-05-14T20:16:58.419Z,23.44
2019-05-14T20:19:28.655Z,23.44
2019-05-14T20:21:58.794Z,23.39
2019-05-14T20:25:03.728Z,23.43
2019-05-14T20:27:34.058Z,23.39
2019-05-14T20:30:04.496Z,23.40
2019-05-14T20:32:34.703Z,23.39
2019-05-14T20:35:04.901Z,23.38
2019-05-14T20:37:34.061Z,23.39
2019-05-14T20:40:03.643Z,23.36
2019-05-14T20:42:33.251Z,23.35
2019-05-14T20:45:02.510Z,23.32
2019-05-14T20:47:31.773Z,23.31
2019-05-14T20:50:01.009Z,23.32
2019-05-14T20:52:30.272Z,23.32
2019-05-14T20:54:59.494Z,23.30
2019-05-14T20:57:33.354Z,23.28
2019-05-14T21:00:00.404Z,23.27
2019-05-14T21:02:29.678Z,23.24
2019-05-14T21:05:04.196Z,23.28
2019-05-14T21:07:30.801Z,23.26
2019-05-14T21:09:59.928Z,23.27
2019-05-14T21:12:29.121Z,23.24
2019-05-14T21:14:59.098Z,23.22
2019-05-14T21:17:28.771Z,23.24
2019-05-14T21:19:58.065Z,23.20
2019-05-14T21:22:29.110Z,23.20
2019-05-14T21:24:58.410Z,23.17
2019-05-14T21:27:40.811Z,23.20
2019-05-14T21:30:00.721Z,23.16
2019-05-14T21:32:30.357Z,23.16
2019-05-14T21:35:00.598Z,23.16
2019-05-14T21:37:30.262Z,23.16
2019-05-14T21:39:59.801Z,23.18
2019-05-14T21:42:28.710Z,23.16
2019-05-14T21:44:58.572Z,23.16
2019-05-14T21:47:28.560Z,23.16
2019-05-14T21:49:58.433Z,23.12
2019-05-14T21:52:28.974Z,23.12
2019-05-14T21:54:58.682Z,23.13
2019-05-14T21:57:28.369Z,23.15
2019-05-14T21:59:58.866Z,23.13
2019-05-14T22:04:23.629Z,23.13
2019-05-14T22:06:53.498Z,23.11
2019-05-14T22:09:23.715Z,23.06
2019-05-14T22:11:53.438Z,23.09
2019-05-14T22:14:23.887Z,23.08
2019-05-14T22:16:53.454Z,23.14
2019-05-14T22:19:23.441Z,23.12
2019-05-14T22:21:52.758Z,23.10
2019-05-14T22:24:21.884Z,23.12
2019-05-14T22:26:51.119Z,23.12
2019-05-14T22:29:20.359Z,23.09
2019-05-14T22:31:49.489Z,23.12
2019-05-14T22:34:18.640Z,23.07
2019-05-14T22:36:48.462Z,23.08
2019-05-14T22:39:19.890Z,23.07
2019-05-14T22:41:49.323Z,23.06
2019-05-14T22:44:18.752Z,23.02
2019-05-14T22:46:49.006Z,22.98
2019-05-14T22:49:19.127Z,23.01
2019-05-14T22:51:49.311Z,22.97
2019-05-14T22:54:20.838Z,22.94
2019-05-14T22:56:50.421Z,22.92
2019-05-14T22:59:20.644Z,22.93
2019-05-14T23:01:49.604Z,22.91
2019-05-14T23:04:18.783Z,22.93
2019-05-14T23:06:48.944Z,22.95
2019-05-14T23:11:03.327Z,22.90
2019-05-14T23:13:32.495Z,22.90
2019-05-14T23:16:01.857Z,22.88
2019-05-14T23:18:31.019Z,22.88
2019-05-14T23:21:00.357Z,22.87
2019-05-14T23:23:29.537Z,22.82
2019-05-14T23:25:59.013Z,22.78
2019-05-14T23:28:41.903Z,22.85
2019-05-14T23:31:00.416Z,22.76
2019-05-14T23:33:30.005Z,22.77
2019-05-14T23:35:59.383Z,22.79
2019-05-14T23:38:29.078Z,22.75
2019-05-14T23:40:58.842Z,22.72
2019-05-14T23:43:29.383Z,22.14
2019-05-14T23:45:58.875Z,22.14
2019-05-14T23:48:29.031Z,22.71
2019-05-14T23:50:58.655Z,22.70
2019-05-14T23:53:29.176Z,22.69
2019-05-14T23:55:58.608Z,22.66
2019-05-14T23:58:28.969Z,22.62
